sensor_id;sensor_type;location;lat;lon;timestamp;P1;durP1;ratioP1;P2;durP2;ratioP2
48026;SDS011;50714;49.208;5.364;2023-12-14T00:04:27;6.57;;;5.55;;
48026;SDS011;50714;49.208;5.364;2023-12-14T00:14:27;6.63;;;5.63;;
48026;SDS011;50714;49.208;5.364;2023-12-14T00:24:27;6.78;;;5.80;;
48026;SDS011;50714;49.208;5.364;2023-12-14T00:34:28;6.50;;;5.38;;
48026;SDS011;50714;49.208;5.364;2023-12-14T00:44:28;8.02;;;6.00;;
48026;SDS011;50714;49.208;5.364;2023-12-14T00:54:28;6.55;;;5.82;;
48026;SDS011;50714;49.208;5.364;2023-12-14T01:04:28;6.18;;;5.50;;
48026;SDS011;50714;49.208;5.364;2023-12-14T01:14:29;6.13;;;5.43;;
48026;SDS011;50714;49.208;5.364;2023-12-14T01:24:29;6.90;;;6.13;;
48026;SDS011;50714;49.208;5.364;2023-12-14T01:34:29;7.60;;;6.80;;
48026;SDS011;50714;49.208;5.364;2023-12-14T01:44:29;7.90;;;6.60;;
48026;SDS011;50714;49.208;5.364;2023-12-14T01:54:30;8.40;;;7.55;;
48026;SDS011;50714;49.208;5.364;2023-12-14T02:04:30;8.50;;;7.63;;
48026;SDS011;50714;49.208;5.364;2023-12-14T02:14:31;8.60;;;7.70;;
48026;SDS011;50714;49.208;5.364;2023-12-14T02:24:31;8.48;;;7.68;;
48026;SDS011;50714;49.208;5.364;2023-12-14T02:34:32;8.90;;;8.00;;
48026;SDS011;50714;49.208;5.364;2023-12-14T02:44:32;9.23;;;8.23;;
48026;SDS011;50714;49.208;5.364;2023-12-14T02:54:32;8.65;;;7.75;;
48026;SDS011;50714;49.208;5.364;2023-12-14T03:04:32;8.60;;;7.70;;
48026;SDS011;50714;49.208;5.364;2023-12-14T03:14:33;9.10;;;8.20;;
48026;SDS011;50714;49.208;5.364;2023-12-14T03:24:34;9.65;;;8.65;;
48026;SDS011;50714;49.208;5.364;2023-12-14T03:34:37;10.75;;;9.65;;
48026;SDS011;50714;49.208;5.364;2023-12-14T03:44:37;12.38;;;9.75;;
48026;SDS011;50714;49.208;5.364;2023-12-14T03:54:38;11.95;;;10.15;;
48026;SDS011;50714;49.208;5.364;2023-12-14T04:04:38;12.45;;;11.15;;
48026;SDS011;50714;49.208;5.364;2023-12-14T04:14:39;13.63;;;11.68;;
48026;SDS011;50714;49.208;5.364;2023-12-14T04:24:39;12.25;;;10.95;;
48026;SDS011;50714;49.208;5.364;2023-12-14T04:34:39;11.32;;;9.88;;
48026;SDS011;50714;49.208;5.364;2023-12-14T04:44:40;11.70;;;10.48;;
48026;SDS011;50714;49.208;5.364;2023-12-14T04:54:40;12.30;;;10.25;;
48026;SDS011;50714;49.208;5.364;2023-12-14T05:04:42;12.30;;;10.93;;
48026;SDS011;50714;49.208;5.364;2023-12-14T05:14:42;11.35;;;9.63;;
48026;SDS011;50714;49.208;5.364;2023-12-14T05:24:45;13.25;;;10.52;;
48026;SDS011;50714;49.208;5.364;2023-12-14T05:34:46;14.98;;;11.65;;
48026;SDS011;50714;49.208;5.364;2023-12-14T05:44:47;12.80;;;11.43;;
48026;SDS011;50714;49.208;5.364;2023-12-14T05:54:48;13.02;;;10.32;;
48026;SDS011;50714;49.208;5.364;2023-12-14T06:04:48;11.68;;;9.77;;
48026;SDS011;50714;49.208;5.364;2023-12-14T06:14:48;12.13;;;9.88;;
48026;SDS011;50714;49.208;5.364;2023-12-14T06:24:50;14.35;;;10.77;;
48026;SDS011;50714;49.208;5.364;2023-12-14T06:34:50;13.00;;;10.48;;
48026;SDS011;50714;49.208;5.364;2023-12-14T06:44:50;15.13;;;12.32;;
48026;SDS011;50714;49.208;5.364;2023-12-14T06:54:50;15.68;;;11.95;;
48026;SDS011;50714;49.208;5.364;2023-12-14T07:04:51;14.73;;;11.65;;
48026;SDS011;50714;49.208;5.364;2023-12-14T07:14:51;17.13;;;13.15;;
48026;SDS011;50714;49.208;5.364;2023-12-14T07:24:51;16.63;;;12.43;;
48026;SDS011;50714;49.208;5.364;2023-12-14T07:34:52;14.45;;;11.65;;
48026;SDS011;50714;49.208;5.364;2023-12-14T07:44:52;14.73;;;11.50;;
48026;SDS011;50714;49.208;5.364;2023-12-14T07:54:54;14.60;;;11.25;;
48026;SDS011;50714;49.208;5.364;2023-12-14T08:04:54;16.73;;;12.10;;
48026;SDS011;50714;49.208;5.364;2023-12-14T08:14:54;15.82;;;12.57;;
48026;SDS011;50714;49.208;5.364;2023-12-14T08:24:55;14.02;;;11.05;;
48026;SDS011;50714;49.208;5.364;2023-12-14T08:34:55;13.80;;;10.52;;
48026;SDS011;50714;49.208;5.364;2023-12-14T08:44:55;15.30;;;11.85;;
48026;SDS011;50714;49.208;5.364;2023-12-14T08:54:56;18.92;;;13.82;;
48026;SDS011;50714;49.208;5.364;2023-12-14T09:04:56;20.63;;;14.77;;
48026;SDS011;50714;49.208;5.364;2023-12-14T09:14:56;21.73;;;15.07;;
48026;SDS011;50714;49.208;5.364;2023-12-14T09:24:57;18.58;;;14.75;;
48026;SDS011;50714;49.208;5.364;2023-12-14T09:34:57;22.45;;;15.50;;
48026;SDS011;50714;49.208;5.364;2023-12-14T09:44:57;24.52;;;17.50;;
48026;SDS011;50714;49.208;5.364;2023-12-14T09:54:57;22.05;;;15.88;;
48026;SDS011;50714;49.208;5.364;2023-12-14T10:04:58;20.30;;;14.77;;
48026;SDS011;50714;49.208;5.364;2023-12-14T10:15:01;20.27;;;14.15;;
48026;SDS011;50714;49.208;5.364;2023-12-14T10:25:05;15.90;;;11.37;;
48026;SDS011;50714;49.208;5.364;2023-12-14T10:35:09;15.50;;;11.50;;
48026;SDS011;50714;49.208;5.364;2023-12-14T10:45:13;12.88;;;8.93;;
48026;SDS011;50714;49.208;5.364;2023-12-14T10:55:26;9.40;;;7.32;;
48026;SDS011;50714;49.208;5.364;2023-12-14T11:05:32;8.60;;;6.65;;
48026;SDS011;50714;49.208;5.364;2023-12-14T11:15:34;8.10;;;7.00;;
48026;SDS011;50714;49.208;5.364;2023-12-14T11:25:35;8.25;;;6.85;;
48026;SDS011;50714;49.208;5.364;2023-12-14T11:35:35;7.85;;;7.05;;
48026;SDS011;50714;49.208;5.364;2023-12-14T11:45:36;9.60;;;7.53;;
48026;SDS011;50714;49.208;5.364;2023-12-14T11:55:39;8.60;;;7.70;;
48026;SDS011;50714;49.208;5.364;2023-12-14T12:05:45;7.15;;;6.43;;
48026;SDS011;50714;49.208;5.364;2023-12-14T12:15:47;7.47;;;6.38;;
48026;SDS011;50714;49.208;5.364;2023-12-14T12:25:48;8.25;;;7.22;;
48026;SDS011;50714;49.208;5.364;2023-12-14T12:35:48;7.75;;;6.68;;
48026;SDS011;50714;49.208;5.364;2023-12-14T12:45:49;8.27;;;7.35;;
48026;SDS011;50714;49.208;5.364;2023-12-14T12:55:50;8.57;;;7.03;;
48026;SDS011;50714;49.208;5.364;2023-12-14T13:05:50;7.70;;;6.70;;
48026;SDS011;50714;49.208;5.364;2023-12-14T13:15:51;7.10;;;6.22;;
48026;SDS011;50714;49.208;5.364;2023-12-14T13:25:51;6.90;;;6.18;;
48026;SDS011;50714;49.208;5.364;2023-12-14T13:35:51;7.00;;;5.63;;
48026;SDS011;50714;49.208;5.364;2023-12-14T13:45:52;6.63;;;5.05;;
48026;SDS011;50714;49.208;5.364;2023-12-14T13:55:57;4.55;;;3.60;;
48026;SDS011;50714;49.208;5.364;2023-12-14T14:05:58;3.58;;;3.00;;
48026;SDS011;50714;49.208;5.364;2023-12-14T14:15:58;3.13;;;2.67;;
48026;SDS011;50714;49.208;5.364;2023-12-14T14:25:58;4.40;;;3.15;;
48026;SDS011;50714;49.208;5.364;2023-12-14T14:35:59;3.78;;;2.70;;
48026;SDS011;50714;49.208;5.364;2023-12-14T14:45:59;3.83;;;3.20;;
48026;SDS011;50714;49.208;5.364;2023-12-14T14:56:00;4.32;;;3.40;;
48026;SDS011;50714;49.208;5.364;2023-12-14T15:06:00;4.43;;;3.55;;
48026;SDS011;50714;49.208;5.364;2023-12-14T15:16:00;4.57;;;3.65;;
48026;SDS011;50714;49.208;5.364;2023-12-14T15:26:01;5.70;;;4.22;;
48026;SDS011;50714;49.208;5.364;2023-12-14T15:36:01;6.00;;;4.60;;
48026;SDS011;50714;49.208;5.364;2023-12-14T15:46:01;5.88;;;4.70;;
48026;SDS011;50714;49.208;5.364;2023-12-14T15:56:02;15.18;;;11.20;;
48026;SDS011;50714;49.208;5.364;2023-12-14T16:06:03;8.87;;;6.93;;
48026;SDS011;50714;49.208;5.364;2023-12-14T16:16:04;6.28;;;4.85;;
48026;SDS011;50714;49.208;5.364;2023-12-14T16:26:04;5.82;;;5.03;;
48026;SDS011;50714;49.208;5.364;2023-12-14T16:36:11;6.00;;;5.10;;
48026;SDS011;50714;49.208;5.364;2023-12-14T16:46:16;20.48;;;17.20;;
48026;SDS011;50714;49.208;5.364;2023-12-14T16:56:18;48.50;;;36.40;;
48026;SDS011;50714;49.208;5.364;2023-12-14T17:06:18;24.13;;;17.13;;
48026;SDS011;50714;49.208;5.364;2023-12-14T17:16:20;9.90;;;8.68;;
48026;SDS011;50714;49.208;5.364;2023-12-14T17:26:22;9.40;;;7.07;;
48026;SDS011;50714;49.208;5.364;2023-12-14T17:36:23;9.38;;;7.55;;
48026;SDS011;50714;49.208;5.364;2023-12-14T17:46:24;22.23;;;13.70;;
48026;SDS011;50714;49.208;5.364;2023-12-14T17:56:24;13.88;;;10.75;;
48026;SDS011;50714;49.208;5.364;2023-12-14T18:06:24;21.25;;;13.18;;
48026;SDS011;50714;49.208;5.364;2023-12-14T18:16:25;12.60;;;9.40;;
48026;SDS011;50714;49.208;5.364;2023-12-14T18:26:25;12.35;;;9.00;;
48026;SDS011;50714;49.208;5.364;2023-12-14T18:36:25;6.28;;;5.38;;
48026;SDS011;50714;49.208;5.364;2023-12-14T18:46:26;7.20;;;5.35;;
48026;SDS011;50714;49.208;5.364;2023-12-14T18:56:26;7.95;;;6.95;;
48026;SDS011;50714;49.208;5.364;2023-12-14T19:06:26;15.90;;;12.00;;
48026;SDS011;50714;49.208;5.364;2023-12-14T19:16:29;18.75;;;13.65;;
48026;SDS011;50714;49.208;5.364;2023-12-14T19:26:30;14.30;;;10.55;;
48026;SDS011;50714;49.208;5.364;2023-12-14T19:36:31;14.98;;;11.73;;
48026;SDS011;50714;49.208;5.364;2023-12-14T19:46:32;10.70;;;8.80;;
48026;SDS011;50714;49.208;5.364;2023-12-14T19:56:33;9.63;;;8.07;;
48026;SDS011;50714;49.208;5.364;2023-12-14T20:06:34;19.33;;;13.80;;
48026;SDS011;50714;49.208;5.364;2023-12-14T20:16:34;13.82;;;9.85;;
48026;SDS011;50714;49.208;5.364;2023-12-14T20:26:36;16.40;;;9.80;;
48026;SDS011;50714;49.208;5.364;2023-12-14T20:36:37;15.90;;;9.88;;
48026;SDS011;50714;49.208;5.364;2023-12-14T20:46:38;19.95;;;11.38;;
48026;SDS011;50714;49.208;5.364;2023-12-14T20:56:38;24.90;;;14.02;;
48026;SDS011;50714;49.208;5.364;2023-12-14T21:06:38;26.10;;;14.55;;
48026;SDS011;50714;49.208;5.364;2023-12-14T21:16:39;35.95;;;22.77;;
48026;SDS011;50714;49.208;5.364;2023-12-14T21:26:39;60.03;;;36.03;;
48026;SDS011;50714;49.208;5.364;2023-12-14T21:36:46;44.83;;;25.90;;
48026;SDS011;50714;49.208;5.364;2023-12-14T21:46:47;20.15;;;12.68;;
48026;SDS011;50714;49.208;5.364;2023-12-14T21:56:47;8.52;;;5.38;;
48026;SDS011;50714;49.208;5.364;2023-12-14T22:06:47;13.05;;;7.00;;
48026;SDS011;50714;49.208;5.364;2023-12-14T22:16:48;35.75;;;17.70;;
48026;SDS011;50714;49.208;5.364;2023-12-14T22:26:50;18.77;;;9.05;;
48026;SDS011;50714;49.208;5.364;2023-12-14T22:36:50;7.97;;;5.05;;
48026;SDS011;50714;49.208;5.364;2023-12-14T22:46:51;6.15;;;4.25;;
48026;SDS011;50714;49.208;5.364;2023-12-14T22:56:51;5.88;;;3.30;;
48026;SDS011;50714;49.208;5.364;2023-12-14T23:06:53;4.63;;;3.15;;
48026;SDS011;50714;49.208;5.364;2023-12-14T23:16:54;5.20;;;3.22;;
48026;SDS011;50714;49.208;5.364;2023-12-14T23:26:55;13.18;;;9.10;;
48026;SDS011;50714;49.208;5.364;2023-12-14T23:36:56;7.82;;;5.03;;
48026;SDS011;50714;49.208;5.364;2023-12-14T23:46:56;5.10;;;3.47;;
48026;SDS011;50714;49.208;5.364;2023-12-14T23:56:56;5.25;;;3.95;;
